Αρχική σελίδα
METAR-TAF:

METAR-TAF

Αεροδρόμια :

Μαυρίκιος, Μαυρίκιος

γεωγραφικό πλάτος: 20-26S, γεωγραφικό μήκος: 057-40E, υψόμετρο: 55 μ

Παρών καιρός

Η αναφορά έγινε 1 ώρα και 11 λεπτά πριν, στις 17:00 UTC
Άνεμος 12 kt από Α
Θερμοκρασία 22°C
Υγρασία 94%
Πίεση 1020 hPa
Ορατότητα 10 χλμ και άνω
Διάσπαρτα νέφη σε ύψος 1500 πόδια
Αρκετά νέφη σε ύψος 5000 πόδια
Όμβροι σε κοντινή απόσταση

METAR: FIMP 251700Z 10012KT 9999 VCSH SCT015 BKN050 22/21 Q1020

Χρόνος: 22:11 (18:11 UTC)

Πρόγνωση Καιρού

Η αναφορά έγινε 56 λεπτά πριν, στις 17:15 UTC
Η πρόγνωση ισχύει από τις 25 στις 18 UTC έως τις 27 στις 00 UTC
Άνεμος 12 kt από Α με ριπές μέχρι 25 kt
Ορατότητα 10 χλμ και άνω
Διάσπαρτα νέφη σε ύψος 1800 πόδια
Προσωρινά
από 25 στις 18 UTC έως τις 26 στις 06 UTC
Ορατότητα: 7000 μ
Αρκετά νέφη σε ύψος 1600 πόδια
Ασθενείς όμβροι

TAF: FIMP 251715Z 2518/2700 10012G25KT 9999 SCT018 TEMPO 2518/2606 7000 -SHRA BKN016

Μετεωρολογικές αναφορές και προγνώσεις για περισσότερα από 4000 αεροδρόμια (δελτία METAR και TAF).

Οι διαθέσιμοι σταθμοί απεικονίζονται στο χάρτη με κίτρινες και κόκκινες κουκκίδες.

Μετακινήστε το ποντίκι πάνω από τις κουκκίδες για να δείτε το όνομα του σταθμού.

Στη συνέχεια, κάντε κλικ για να δείτε τις μετεωρολογικές αναφορές και τις προγνώσεις καιρού.

Για να αλλάξετε το χάρτη: κάντε κλικ στα πράσινα κουμπιά με τον μαύρο σταυρό για να ζουμάρετε, στο πράσινο κουμπί με την παύλα για να αφαιρέσετε το ζουμ ή στα πράσινα βέλη για να αντιπαραβάλλετε χάρτες.


METAR-TAF: